sensor_id;sensor_type;location;lat;lon;timestamp;pressure;altitude;pressure_sealevel;temperature;humidity
10618;BME280;5356;43.526;26.534;2023-04-08T00:03:41;99482.44;;;8.64;89.44
10618;BME280;5356;43.526;26.534;2023-04-08T00:06:33;99484.03;;;8.52;90.11
10618;BME280;5356;43.526;26.534;2023-04-08T00:16:41;99486.97;;;8.70;91.20
10618;BME280;5356;43.526;26.534;2023-04-08T00:22:26;99482.28;;;8.72;91.08
10618;BME280;5356;43.526;26.534;2023-04-08T00:25:03;99482.50;;;8.77;91.19
10618;BME280;5356;43.526;26.534;2023-04-08T00:34:29;99477.19;;;8.77;91.54
10618;BME280;5356;43.526;26.534;2023-04-08T00:37:25;99479.63;;;8.79;90.76
10618;BME280;5356;43.526;26.534;2023-04-08T00:45:01;99474.94;;;8.81;91.06
10618;BME280;5356;43.526;26.534;2023-04-08T00:48:16;99475.75;;;8.82;91.47
10618;BME280;5356;43.526;26.534;2023-04-08T00:51:45;99476.16;;;8.72;91.37
10618;BME280;5356;43.526;26.534;2023-04-08T00:54:59;99487.78;;;8.71;91.55
10618;BME280;5356;43.526;26.534;2023-04-08T01:08:01;99466.50;;;8.64;94.21
10618;BME280;5356;43.526;26.534;2023-04-08T01:11:03;99471.22;;;8.69;94.89
10618;BME280;5356;43.526;26.534;2023-04-08T01:13:39;99462.25;;;8.70;94.50
10618;BME280;5356;43.526;26.534;2023-04-08T01:16:25;99455.28;;;8.69;95.40
10618;BME280;5356;43.526;26.534;2023-04-08T01:18:52;99462.88;;;8.72;95.99
10618;BME280;5356;43.526;26.534;2023-04-08T01:21:19;99458.78;;;8.69;95.88
10618;BME280;5356;43.526;26.534;2023-04-08T01:24:08;99450.19;;;8.67;96.21
10618;BME280;5356;43.526;26.534;2023-04-08T01:26:51;99458.97;;;8.68;96.86
10618;BME280;5356;43.526;26.534;2023-04-08T01:29:44;99454.69;;;8.67;97.69
10618;BME280;5356;43.526;26.534;2023-04-08T01:32:22;99454.88;;;8.65;97.66
10618;BME280;5356;43.526;26.534;2023-04-08T01:38:35;99443.50;;;8.37;98.82
10618;BME280;5356;43.526;26.534;2023-04-08T01:53:55;99450.66;;;8.36;100.00
10618;BME280;5356;43.526;26.534;2023-04-08T01:56:44;99456.22;;;8.41;100.00
10618;BME280;5356;43.526;26.534;2023-04-08T01:59:30;99450.09;;;8.41;100.00
10618;BME280;5356;43.526;26.534;2023-04-08T02:02:39;99453.63;;;8.13;100.00
10618;BME280;5356;43.526;26.534;2023-04-08T02:05:29;99452.38;;;8.09;100.00
10618;BME280;5356;43.526;26.534;2023-04-08T02:08:55;99463.00;;;8.09;100.00
10618;BME280;5356;43.526;26.534;2023-04-08T02:15:54;99443.66;;;8.22;100.00
10618;BME280;5356;43.526;26.534;2023-04-08T02:19:01;99436.53;;;8.22;100.00
10618;BME280;5356;43.526;26.534;2023-04-08T02:24:48;99441.03;;;8.28;100.00
10618;BME280;5356;43.526;26.534;2023-04-08T02:28:00;99443.91;;;8.33;100.00
10618;BME280;5356;43.526;26.534;2023-04-08T02:38:06;99438.78;;;8.25;100.00
10618;BME280;5356;43.526;26.534;2023-04-08T02:41:27;99430.81;;;8.19;100.00
10618;BME280;5356;43.526;26.534;2023-04-08T02:44:05;99441.00;;;8.22;100.00
10618;BME280;5356;43.526;26.534;2023-04-08T02:47:58;99438.59;;;8.27;100.00
10618;BME280;5356;43.526;26.534;2023-04-08T02:50:01;99440.84;;;8.30;100.00
10618;BME280;5356;43.526;26.534;2023-04-08T02:52:26;99450.25;;;8.32;100.00
10618;BME280;5356;43.526;26.534;2023-04-08T02:54:55;99438.22;;;8.37;100.00
10618;BME280;5356;43.526;26.534;2023-04-08T02:57:20;99436.59;;;8.36;100.00
10618;BME280;5356;43.526;26.534;2023-04-08T02:59:46;99435.09;;;8.26;100.00
10618;BME280;5356;43.526;26.534;2023-04-08T03:02:12;99436.53;;;8.22;100.00
10618;BME280;5356;43.526;26.534;2023-04-08T03:04:37;99432.44;;;8.20;100.00
10618;BME280;5356;43.526;26.534;2023-04-08T03:07:03;99433.41;;;8.12;100.00
10618;BME280;5356;43.526;26.534;2023-04-08T03:09:28;99431.78;;;8.11;100.00
10618;BME280;5356;43.526;26.534;2023-04-08T03:11:54;99433.81;;;8.09;100.00
10618;BME280;5356;43.526;26.534;2023-04-08T03:14:20;99439.56;;;8.19;100.00
10618;BME280;5356;43.526;26.534;2023-04-08T03:16:46;99432.84;;;8.23;100.00
10618;BME280;5356;43.526;26.534;2023-04-08T03:19:12;99434.66;;;8.16;100.00
10618;BME280;5356;43.526;26.534;2023-04-08T03:21:38;99433.59;;;8.04;100.00
10618;BME280;5356;43.526;26.534;2023-04-08T03:24:04;99421.09;;;7.98;100.00
10618;BME280;5356;43.526;26.534;2023-04-08T03:26:30;99437.97;;;7.83;100.00
10618;BME280;5356;43.526;26.534;2023-04-08T03:28:55;99435.69;;;7.80;100.00
10618;BME280;5356;43.526;26.534;2023-04-08T03:31:21;99435.28;;;7.77;100.00
10618;BME280;5356;43.526;26.534;2023-04-08T03:33:46;99443.25;;;7.83;100.00
10618;BME280;5356;43.526;26.534;2023-04-08T03:36:12;99431.50;;;7.93;100.00
10618;BME280;5356;43.526;26.534;2023-04-08T03:38:38;99440.06;;;7.95;100.00
10618;BME280;5356;43.526;26.534;2023-04-08T03:41:06;99453.09;;;7.90;100.00
10618;BME280;5356;43.526;26.534;2023-04-08T03:43:37;99440.84;;;7.88;100.00
10618;BME280;5356;43.526;26.534;2023-04-08T03:47:05;99447.03;;;7.96;100.00
10618;BME280;5356;43.526;26.534;2023-04-08T03:53:03;99456.06;;;8.15;100.00
10618;BME280;5356;43.526;26.534;2023-04-08T03:55:53;99457.13;;;8.20;100.00
10618;BME280;5356;43.526;26.534;2023-04-08T04:05:11;99467.50;;;8.15;100.00
10618;BME280;5356;43.526;26.534;2023-04-08T04:07:37;99472.78;;;8.08;100.00
10618;BME280;5356;43.526;26.534;2023-04-08T04:10:51;99470.00;;;8.23;100.00
10618;BME280;5356;43.526;26.534;2023-04-08T04:16:23;99477.56;;;8.26;100.00
10618;BME280;5356;43.526;26.534;2023-04-08T04:19:01;99470.47;;;8.33;100.00
10618;BME280;5356;43.526;26.534;2023-04-08T04:21:36;99490.47;;;8.29;100.00
10618;BME280;5356;43.526;26.534;2023-04-08T04:24:02;99475.75;;;8.27;100.00
10618;BME280;5356;43.526;26.534;2023-04-08T04:26:27;99489.22;;;8.32;100.00
10618;BME280;5356;43.526;26.534;2023-04-08T04:28:53;99490.94;;;8.40;100.00
10618;BME280;5356;43.526;26.534;2023-04-08T04:31:23;99490.75;;;8.48;100.00
10618;BME280;5356;43.526;26.534;2023-04-08T04:34:01;99489.97;;;8.54;100.00
10618;BME280;5356;43.526;26.534;2023-04-08T04:36:47;99482.84;;;8.61;100.00
10618;BME280;5356;43.526;26.534;2023-04-08T04:39:41;99484.47;;;8.62;100.00
10618;BME280;5356;43.526;26.534;2023-04-08T04:49:09;99489.97;;;8.54;100.00
10618;BME280;5356;43.526;26.534;2023-04-08T04:55:47;99500.88;;;8.72;100.00
10618;BME280;5356;43.526;26.534;2023-04-08T05:05:27;99507.84;;;8.87;100.00
10618;BME280;5356;43.526;26.534;2023-04-08T05:08:34;99515.81;;;8.93;100.00
10618;BME280;5356;43.526;26.534;2023-04-08T05:11:43;99514.78;;;8.94;100.00
10618;BME280;5356;43.526;26.534;2023-04-08T05:21:43;99513.81;;;9.02;100.00
10618;BME280;5356;43.526;26.534;2023-04-08T05:33:46;99515.69;;;9.15;100.00
10618;BME280;5356;43.526;26.534;2023-04-08T05:36:12;99518.94;;;9.04;100.00
10618;BME280;5356;43.526;26.534;2023-04-08T05:38:38;99523.22;;;8.98;100.00
10618;BME280;5356;43.526;26.534;2023-04-08T05:41:04;99525.00;;;8.91;100.00
10618;BME280;5356;43.526;26.534;2023-04-08T05:43:33;99520.72;;;8.90;100.00
10618;BME280;5356;43.526;26.534;2023-04-08T05:45:59;99518.47;;;8.93;100.00
10618;BME280;5356;43.526;26.534;2023-04-08T05:48:24;99519.28;;;8.94;100.00
10618;BME280;5356;43.526;26.534;2023-04-08T05:50:50;99518.91;;;8.97;100.00
10618;BME280;5356;43.526;26.534;2023-04-08T05:53:15;99518.50;;;9.00;100.00
10618;BME280;5356;43.526;26.534;2023-04-08T05:55:41;99519.13;;;9.02;100.00
10618;BME280;5356;43.526;26.534;2023-04-08T05:58:06;99521.78;;;8.95;100.00
10618;BME280;5356;43.526;26.534;2023-04-08T06:00:32;99519.69;;;8.91;100.00
10618;BME280;5356;43.526;26.534;2023-04-08T06:02:58;99513.00;;;9.02;100.00
10618;BME280;5356;43.526;26.534;2023-04-08T06:05:24;99516.50;;;9.09;100.00
10618;BME280;5356;43.526;26.534;2023-04-08T06:07:49;99511.41;;;9.27;100.00
10618;BME280;5356;43.526;26.534;2023-04-08T06:10:15;99512.41;;;9.39;100.00
10618;BME280;5356;43.526;26.534;2023-04-08T06:12:40;99515.91;;;9.47;100.00
10618;BME280;5356;43.526;26.534;2023-04-08T06:15:07;99519.38;;;9.47;100.00
10618;BME280;5356;43.526;26.534;2023-04-08T06:17:35;99522.25;;;9.59;100.00
10618;BME280;5356;43.526;26.534;2023-04-08T06:20:01;99511.59;;;9.79;100.00
10618;BME280;5356;43.526;26.534;2023-04-08T06:22:26;99515.28;;;9.84;100.00
10618;BME280;5356;43.526;26.534;2023-04-08T06:24:52;99507.09;;;9.99;100.00
10618;BME280;5356;43.526;26.534;2023-04-08T06:27:17;99503.78;;;10.04;100.00
10618;BME280;5356;43.526;26.534;2023-04-08T06:29:42;99519.13;;;10.08;100.00
10618;BME280;5356;43.526;26.534;2023-04-08T06:32:08;99508.69;;;10.14;100.00
10618;BME280;5356;43.526;26.534;2023-04-08T06:34:33;99512.78;;;10.09;100.00
10618;BME280;5356;43.526;26.534;2023-04-08T06:36:59;99517.50;;;10.01;100.00
10618;BME280;5356;43.526;26.534;2023-04-08T06:39:25;99513.00;;;10.01;100.00
10618;BME280;5356;43.526;26.534;2023-04-08T06:41:50;99511.97;;;10.09;100.00
10618;BME280;5356;43.526;26.534;2023-04-08T06:44:16;99512.75;;;10.16;100.00
10618;BME280;5356;43.526;26.534;2023-04-08T06:46:41;99506.63;;;10.29;100.00
10618;BME280;5356;43.526;26.534;2023-04-08T06:49:07;99511.69;;;10.44;100.00
10618;BME280;5356;43.526;26.534;2023-04-08T06:51:32;99504.03;;;10.61;100.00
10618;BME280;5356;43.526;26.534;2023-04-08T06:53:58;99514.38;;;10.82;100.00
10618;BME280;5356;43.526;26.534;2023-04-08T06:56:23;99512.94;;;10.86;100.00
10618;BME280;5356;43.526;26.534;2023-04-08T06:58:51;99502.81;;;11.01;100.00
10618;BME280;5356;43.526;26.534;2023-04-08T07:01:16;99501.75;;;11.02;99.40
10618;BME280;5356;43.526;26.534;2023-04-08T07:03:42;99507.88;;;11.10;98.43
10618;BME280;5356;43.526;26.534;2023-04-08T07:06:07;99522.06;;;11.35;98.32
10618;BME280;5356;43.526;26.534;2023-04-08T07:08:32;99512.16;;;11.42;96.35
10618;BME280;5356;43.526;26.534;2023-04-08T07:10:58;99511.81;;;11.57;95.31
10618;BME280;5356;43.526;26.534;2023-04-08T07:13:25;99508.84;;;11.72;93.88
10618;BME280;5356;43.526;26.534;2023-04-08T07:15:50;99507.44;;;11.69;93.10
10618;BME280;5356;43.526;26.534;2023-04-08T07:18:16;99523.38;;;11.76;93.61
10618;BME280;5356;43.526;26.534;2023-04-08T07:20:42;99512.19;;;11.93;93.32
10618;BME280;5356;43.526;26.534;2023-04-08T07:23:08;99526.25;;;12.00;92.55
10618;BME280;5356;43.526;26.534;2023-04-08T07:25:33;99518.41;;;12.05;91.14
10618;BME280;5356;43.526;26.534;2023-04-08T07:27:59;99522.94;;;12.23;91.51
10618;BME280;5356;43.526;26.534;2023-04-08T07:30:25;99518.88;;;12.20;91.76
10618;BME280;5356;43.526;26.534;2023-04-08T07:32:51;99515.59;;;12.55;91.21
10618;BME280;5356;43.526;26.534;2023-04-08T07:35:16;99511.88;;;12.74;90.14
10618;BME280;5356;43.526;26.534;2023-04-08T07:37:48;99514.81;;;12.85;89.42
10618;BME280;5356;43.526;26.534;2023-04-08T07:40:14;99508.59;;;12.72;87.87
10618;BME280;5356;43.526;26.534;2023-04-08T07:42:39;99519.63;;;12.94;89.99
10618;BME280;5356;43.526;26.534;2023-04-08T07:45:05;99525.59;;;13.08;88.50
10618;BME280;5356;43.526;26.534;2023-04-08T07:47:31;99528.34;;;13.01;86.95
10618;BME280;5356;43.526;26.534;2023-04-08T07:49:56;99526.34;;;12.85;86.16
10618;BME280;5356;43.526;26.534;2023-04-08T07:52:22;99534.66;;;12.77;86.50
10618;BME280;5356;43.526;26.534;2023-04-08T07:54:47;99535.47;;;12.77;87.65
10618;BME280;5356;43.526;26.534;2023-04-08T07:57:13;99525.63;;;12.90;87.31
10618;BME280;5356;43.526;26.534;2023-04-08T07:59:38;99535.34;;;13.02;87.58
10618;BME280;5356;43.526;26.534;2023-04-08T08:02:04;99532.56;;;13.09;87.01
10618;BME280;5356;43.526;26.534;2023-04-08T08:04:29;99535.47;;;13.08;87.58
10618;BME280;5356;43.526;26.534;2023-04-08T08:06:55;99538.84;;;13.03;87.21
10618;BME280;5356;43.526;26.534;2023-04-08T08:09:20;99535.22;;;12.97;85.79
10618;BME280;5356;43.526;26.534;2023-04-08T08:11:45;99535.66;;;12.94;86.33
10618;BME280;5356;43.526;26.534;2023-04-08T08:14:11;99541.81;;;12.95;85.56
10618;BME280;5356;43.526;26.534;2023-04-08T08:16:38;99536.63;;;13.00;86.00
10618;BME280;5356;43.526;26.534;2023-04-08T08:19:03;99538.59;;;13.04;85.66
10618;BME280;5356;43.526;26.534;2023-04-08T08:21:31;99543.63;;;13.13;85.29
10618;BME280;5356;43.526;26.534;2023-04-08T08:23:57;99539.53;;;13.10;85.00
10618;BME280;5356;43.526;26.534;2023-04-08T08:26:23;99540.50;;;13.16;85.12
10618;BME280;5356;43.526;26.534;2023-04-08T08:28:50;99537.75;;;13.22;84.97
10618;BME280;5356;43.526;26.534;2023-04-08T08:31:18;99539.22;;;13.37;84.97
10618;BME280;5356;43.526;26.534;2023-04-08T08:33:44;99536.22;;;13.45;84.61
10618;BME280;5356;43.526;26.534;2023-04-08T08:36:11;99538.88;;;13.45;84.81
10618;BME280;5356;43.526;26.534;2023-04-08T08:38:36;99528.41;;;13.55;85.38
10618;BME280;5356;43.526;26.534;2023-04-08T08:41:02;99531.19;;;13.48;84.31
10618;BME280;5356;43.526;26.534;2023-04-08T08:43:29;99541.34;;;13.58;84.80
10618;BME280;5356;43.526;26.534;2023-04-08T08:45:57;99527.38;;;13.56;83.79
10618;BME280;5356;43.526;26.534;2023-04-08T08:48:23;99524.00;;;13.61;84.17
10618;BME280;5356;43.526;26.534;2023-04-08T08:50:49;99532.16;;;13.54;83.71
10618;BME280;5356;43.526;26.534;2023-04-08T08:53:15;99536.25;;;13.68;83.63
10618;BME280;5356;43.526;26.534;2023-04-08T08:55:41;99533.44;;;13.87;83.44
10618;BME280;5356;43.526;26.534;2023-04-08T08:58:06;99530.88;;;13.92;83.18
10618;BME280;5356;43.526;26.534;2023-04-08T09:00:40;99534.88;;;14.01;83.61
10618;BME280;5356;43.526;26.534;2023-04-08T09:03:19;99541.16;;;14.19;83.75
10618;BME280;5356;43.526;26.534;2023-04-08T09:05:55;99536.94;;;14.23;82.46
10618;BME280;5356;43.526;26.534;2023-04-08T09:08:34;99530.16;;;14.32;81.31
10618;BME280;5356;43.526;26.534;2023-04-08T09:11:17;99533.88;;;14.43;81.50
10618;BME280;5356;43.526;26.534;2023-04-08T09:13:44;99539.13;;;14.61;81.94
10618;BME280;5356;43.526;26.534;2023-04-08T09:16:12;99532.44;;;14.75;80.92
10618;BME280;5356;43.526;26.534;2023-04-08T09:18:38;99532.38;;;14.87;79.16
10618;BME280;5356;43.526;26.534;2023-04-08T09:21:06;99526.22;;;14.87;78.75
10618;BME280;5356;43.526;26.534;2023-04-08T09:23:49;99523.47;;;14.98;78.55
10618;BME280;5356;43.526;26.534;2023-04-08T09:26:20;99534.09;;;15.22;78.76
10618;BME280;5356;43.526;26.534;2023-04-08T09:29:08;99531.69;;;15.37;78.14
10618;BME280;5356;43.526;26.534;2023-04-08T09:31:38;99538.59;;;15.50;76.82
10618;BME280;5356;43.526;26.534;2023-04-08T09:34:11;99529.06;;;15.59;74.08
10618;BME280;5356;43.526;26.534;2023-04-08T09:36:37;99524.97;;;15.68;74.39
10618;BME280;5356;43.526;26.534;2023-04-08T09:39:03;99527.78;;;15.62;72.65
10618;BME280;5356;43.526;26.534;2023-04-08T09:41:32;99528.06;;;15.77;72.40
10618;BME280;5356;43.526;26.534;2023-04-08T09:43:59;99528.38;;;15.81;71.45
10618;BME280;5356;43.526;26.534;2023-04-08T09:46:42;99523.81;;;15.98;71.05
10618;BME280;5356;43.526;26.534;2023-04-08T09:49:16;99533.31;;;16.06;70.02
10618;BME280;5356;43.526;26.534;2023-04-08T09:51:53;99539.31;;;16.13;70.21
10618;BME280;5356;43.526;26.534;2023-04-08T09:54:30;99527.78;;;15.96;69.33
10618;BME280;5356;43.526;26.534;2023-04-08T09:57:00;99526.00;;;16.01;68.87
10618;BME280;5356;43.526;26.534;2023-04-08T09:59:30;99526.97;;;15.95;70.01
10618;BME280;5356;43.526;26.534;2023-04-08T10:02:00;99529.34;;;15.91;69.62
10618;BME280;5356;43.526;26.534;2023-04-08T10:04:31;99531.25;;;15.91;68.94
10618;BME280;5356;43.526;26.534;2023-04-08T10:07:05;99524.06;;;15.97;68.27
10618;BME280;5356;43.526;26.534;2023-04-08T10:09:32;99528.19;;;16.04;68.29
10618;BME280;5356;43.526;26.534;2023-04-08T10:11:58;99533.16;;;15.96;68.21
10618;BME280;5356;43.526;26.534;2023-04-08T10:14:24;99524.88;;;15.80;67.41
10618;BME280;5356;43.526;26.534;2023-04-08T10:17:25;99533.44;;;15.77;67.49
10618;BME280;5356;43.526;26.534;2023-04-08T10:19:59;99517.38;;;15.82;69.67
10618;BME280;5356;43.526;26.534;2023-04-08T10:27:42;99530.56;;;15.67;68.82
10618;BME280;5356;43.526;26.534;2023-04-08T10:32:54;99528.06;;;15.77;67.79
10618;BME280;5356;43.526;26.534;2023-04-08T10:35:34;99520.97;;;15.88;67.19
10618;BME280;5356;43.526;26.534;2023-04-08T10:38:01;99531.38;;;15.84;66.41
10618;BME280;5356;43.526;26.534;2023-04-08T10:40:27;99533.66;;;15.92;67.09
10618;BME280;5356;43.526;26.534;2023-04-08T10:42:59;99522.09;;;15.92;66.93
10618;BME280;5356;43.526;26.534;2023-04-08T10:45:24;99533.44;;;15.94;66.40
10618;BME280;5356;43.526;26.534;2023-04-08T10:47:50;99530.97;;;15.92;66.22
10618;BME280;5356;43.526;26.534;2023-04-08T10:50:17;99525.75;;;16.03;66.95
10618;BME280;5356;43.526;26.534;2023-04-08T10:52:50;99527.16;;;16.05;66.32
10618;BME280;5356;43.526;26.534;2023-04-08T10:55:25;99531.38;;;16.01;65.47
10618;BME280;5356;43.526;26.534;2023-04-08T10:57:54;99531.97;;;15.86;65.59
10618;BME280;5356;43.526;26.534;2023-04-08T11:00:32;99521.44;;;16.02;65.28
10618;BME280;5356;43.526;26.534;2023-04-08T11:03:09;99517.47;;;16.26;64.96
10618;BME280;5356;43.526;26.534;2023-04-08T11:05:36;99511.25;;;16.43;64.64
10618;BME280;5356;43.526;26.534;2023-04-08T11:08:04;99519.78;;;16.61;65.43
10618;BME280;5356;43.526;26.534;2023-04-08T11:10:30;99509.72;;;16.52;64.64
10618;BME280;5356;43.526;26.534;2023-04-08T11:12:57;99515.47;;;16.60;64.72
10618;BME280;5356;43.526;26.534;2023-04-08T11:15:24;99499.53;;;16.54;63.81
10618;BME280;5356;43.526;26.534;2023-04-08T11:17:50;99500.28;;;16.49;64.27
10618;BME280;5356;43.526;26.534;2023-04-08T11:20:16;99503.09;;;16.59;64.26
10618;BME280;5356;43.526;26.534;2023-04-08T11:22:43;99502.41;;;16.69;63.48
10618;BME280;5356;43.526;26.534;2023-04-08T11:25:10;99504.63;;;16.50;62.59
10618;BME280;5356;43.526;26.534;2023-04-08T11:27:36;99499.94;;;16.90;72.90
10618;BME280;5356;43.526;26.534;2023-04-08T11:30:03;99502.91;;;16.88;66.00
10618;BME280;5356;43.526;26.534;2023-04-08T11:32:30;99488.09;;;16.86;64.56
10618;BME280;5356;43.526;26.534;2023-04-08T11:34:55;99489.41;;;16.83;63.65
10618;BME280;5356;43.526;26.534;2023-04-08T11:37:24;99477.53;;;16.79;62.65
10618;BME280;5356;43.526;26.534;2023-04-08T11:39:50;99471.63;;;16.82;62.47
10618;BME280;5356;43.526;26.534;2023-04-08T11:42:30;99474.28;;;16.77;61.72
10618;BME280;5356;43.526;26.534;2023-04-08T11:44:56;99485.97;;;16.88;61.79
10618;BME280;5356;43.526;26.534;2023-04-08T11:47:29;99469.31;;;16.91;60.75
10618;BME280;5356;43.526;26.534;2023-04-08T11:49:56;99485.50;;;16.96;60.86
10618;BME280;5356;43.526;26.534;2023-04-08T11:52:21;99482.75;;;16.91;60.38
10618;BME280;5356;43.526;26.534;2023-04-08T11:54:47;99472.00;;;16.91;59.62
10618;BME280;5356;43.526;26.534;2023-04-08T11:57:12;99470.31;;;16.85;59.29
10618;BME280;5356;43.526;26.534;2023-04-08T11:59:39;99469.75;;;16.82;59.47
10618;BME280;5356;43.526;26.534;2023-04-08T12:02:05;99470.84;;;16.81;59.45
10618;BME280;5356;43.526;26.534;2023-04-08T12:04:31;99467.16;;;16.93;59.33
10618;BME280;5356;43.526;26.534;2023-04-08T12:06:58;99458.59;;;16.96;59.02
10618;BME280;5356;43.526;26.534;2023-04-08T12:09:23;99467.66;;;16.90;58.52
10618;BME280;5356;43.526;26.534;2023-04-08T12:11:49;99462.44;;;16.78;58.80
10618;BME280;5356;43.526;26.534;2023-04-08T12:14:14;99455.00;;;16.63;58.59
10618;BME280;5356;43.526;26.534;2023-04-08T12:16:40;99445.84;;;16.64;58.13
10618;BME280;5356;43.526;26.534;2023-04-08T12:19:05;99455.63;;;16.70;57.80
10618;BME280;5356;43.526;26.534;2023-04-08T12:21:31;99452.41;;;16.73;57.85
10618;BME280;5356;43.526;26.534;2023-04-08T12:23:58;99454.03;;;16.74;57.65
10618;BME280;5356;43.526;26.534;2023-04-08T12:26:24;99456.38;;;16.66;57.73
10618;BME280;5356;43.526;26.534;2023-04-08T12:28:51;99448.59;;;16.69;57.25
10618;BME280;5356;43.526;26.534;2023-04-08T12:31:16;99445.59;;;16.66;57.19
10618;BME280;5356;43.526;26.534;2023-04-08T12:33:42;99450.22;;;16.70;56.98
10618;BME280;5356;43.526;26.534;2023-04-08T12:36:08;99447.28;;;16.72;57.52
10618;BME280;5356;43.526;26.534;2023-04-08T12:38:33;99441.31;;;16.70;56.69
10618;BME280;5356;43.526;26.534;2023-04-08T12:40:58;99446.78;;;16.75;56.75
10618;BME280;5356;43.526;26.534;2023-04-08T12:43:24;99441.81;;;16.89;57.18
10618;BME280;5356;43.526;26.534;2023-04-08T12:45:50;99436.28;;;16.73;56.05
10618;BME280;5356;43.526;26.534;2023-04-08T12:48:16;99442.03;;;16.82;56.07
10618;BME280;5356;43.526;26.534;2023-04-08T12:50:41;99438.28;;;16.61;55.66
10618;BME280;5356;43.526;26.534;2023-04-08T12:53:07;99441.31;;;16.43;57.73
10618;BME280;5356;43.526;26.534;2023-04-08T12:55:32;99438.00;;;16.35;60.00
10618;BME280;5356;43.526;26.534;2023-04-08T12:57:58;99436.19;;;16.19;60.54
10618;BME280;5356;43.526;26.534;2023-04-08T13:00:23;99440.31;;;16.05;61.70
10618;BME280;5356;43.526;26.534;2023-04-08T13:02:50;99437.31;;;16.01;62.94
10618;BME280;5356;43.526;26.534;2023-04-08T13:05:15;99439.69;;;15.98;62.51
10618;BME280;5356;43.526;26.534;2023-04-08T13:07:41;99442.41;;;15.81;62.99
10618;BME280;5356;43.526;26.534;2023-04-08T13:10:07;99444.31;;;15.80;63.97
10618;BME280;5356;43.526;26.534;2023-04-08T13:12:33;99445.59;;;15.61;63.11
10618;BME280;5356;43.526;26.534;2023-04-08T13:14:58;99442.81;;;15.56;65.12
10618;BME280;5356;43.526;26.534;2023-04-08T13:17:25;99449.41;;;15.48;65.43
10618;BME280;5356;43.526;26.534;2023-04-08T13:19:51;99441.84;;;15.28;65.27
10618;BME280;5356;43.526;26.534;2023-04-08T13:22:18;99446.72;;;15.31;66.07
10618;BME280;5356;43.526;26.534;2023-04-08T13:24:44;99452.06;;;15.26;65.93
10618;BME280;5356;43.526;26.534;2023-04-08T13:27:10;99446.34;;;15.22;65.84
10618;BME280;5356;43.526;26.534;2023-04-08T13:29:36;99447.50;;;15.26;68.45
10618;BME280;5356;43.526;26.534;2023-04-08T13:32:01;99449.19;;;15.16;67.61
10618;BME280;5356;43.526;26.534;2023-04-08T13:34:27;99457.72;;;15.13;68.10
10618;BME280;5356;43.526;26.534;2023-04-08T13:36:52;99456.16;;;15.00;70.25
10618;BME280;5356;43.526;26.534;2023-04-08T13:39:17;99448.97;;;14.89;71.41
10618;BME280;5356;43.526;26.534;2023-04-08T13:41:43;99460.72;;;14.71;74.02
10618;BME280;5356;43.526;26.534;2023-04-08T13:44:09;99451.34;;;14.56;76.27
10618;BME280;5356;43.526;26.534;2023-04-08T13:46:41;99447.06;;;14.55;76.95
10618;BME280;5356;43.526;26.534;2023-04-08T13:49:07;99446.78;;;14.57;78.65
10618;BME280;5356;43.526;26.534;2023-04-08T13:51:35;99457.28;;;14.58;79.18
10618;BME280;5356;43.526;26.534;2023-04-08T13:54:06;99451.00;;;14.53;79.40
10618;BME280;5356;43.526;26.534;2023-04-08T14:00:21;99449.81;;;14.08;80.80
10618;BME280;5356;43.526;26.534;2023-04-08T14:03:07;99453.00;;;13.82;82.05
10618;BME280;5356;43.526;26.534;2023-04-08T14:05:47;99456.50;;;13.70;83.36
10618;BME280;5356;43.526;26.534;2023-04-08T14:08:23;99459.19;;;13.70;88.70
10618;BME280;5356;43.526;26.534;2023-04-08T14:10:59;99458.59;;;13.57;88.79
10618;BME280;5356;43.526;26.534;2023-04-08T14:13:24;99449.38;;;13.41;90.04
10618;BME280;5356;43.526;26.534;2023-04-08T14:16:11;99455.44;;;13.36;90.36
10618;BME280;5356;43.526;26.534;2023-04-08T14:18:36;99447.41;;;13.36;90.39
10618;BME280;5356;43.526;26.534;2023-04-08T14:21:10;99449.84;;;13.38;92.66
10618;BME280;5356;43.526;26.534;2023-04-08T14:26:48;99447.56;;;13.53;92.08
10618;BME280;5356;43.526;26.534;2023-04-08T14:32:54;99449.84;;;13.61;93.23
10618;BME280;5356;43.526;26.534;2023-04-08T14:35:36;99450.09;;;13.72;93.37
10618;BME280;5356;43.526;26.534;2023-04-08T14:38:12;99455.44;;;13.72;92.56
10618;BME280;5356;43.526;26.534;2023-04-08T14:40:47;99451.50;;;13.62;93.19
10618;BME280;5356;43.526;26.534;2023-04-08T14:43:35;99457.31;;;13.59;93.28
10618;BME280;5356;43.526;26.534;2023-04-08T14:46:25;99450.09;;;13.72;93.13
10618;BME280;5356;43.526;26.534;2023-04-08T14:48:53;99452.31;;;13.75;92.98
10618;BME280;5356;43.526;26.534;2023-04-08T14:51:55;99443.69;;;13.61;92.86
10618;BME280;5356;43.526;26.534;2023-04-08T14:54:30;99442.06;;;13.48;94.59
10618;BME280;5356;43.526;26.534;2023-04-08T15:00:24;99439.50;;;13.41;94.21
10618;BME280;5356;43.526;26.534;2023-04-08T15:03:02;99440.78;;;13.51;95.23
10618;BME280;5356;43.526;26.534;2023-04-08T15:05:30;99442.41;;;13.52;93.60
10618;BME280;5356;43.526;26.534;2023-04-08T15:07:56;99441.13;;;13.54;90.55
10618;BME280;5356;43.526;26.534;2023-04-08T15:10:21;99442.66;;;13.62;90.36
10618;BME280;5356;43.526;26.534;2023-04-08T15:12:47;99434.03;;;13.72;89.85
10618;BME280;5356;43.526;26.534;2023-04-08T15:15:12;99430.88;;;13.86;89.98
10618;BME280;5356;43.526;26.534;2023-04-08T15:17:38;99438.22;;;13.91;89.13
10618;BME280;5356;43.526;26.534;2023-04-08T15:20:04;99445.44;;;13.90;88.33
10618;BME280;5356;43.526;26.534;2023-04-08T15:22:30;99429.38;;;13.79;89.18
10618;BME280;5356;43.526;26.534;2023-04-08T15:24:56;99436.69;;;13.83;89.96
10618;BME280;5356;43.526;26.534;2023-04-08T15:27:22;99447.75;;;13.87;90.25
10618;BME280;5356;43.526;26.534;2023-04-08T15:29:47;99456.50;;;13.82;90.75
10618;BME280;5356;43.526;26.534;2023-04-08T15:32:14;99461.63;;;13.60;91.99
10618;BME280;5356;43.526;26.534;2023-04-08T15:34:39;99462.56;;;13.54;93.64
10618;BME280;5356;43.526;26.534;2023-04-08T15:37:05;99456.59;;;13.52;93.86
10618;BME280;5356;43.526;26.534;2023-04-08T15:39:30;99462.22;;;13.62;93.89